.
WxDataArchive / Data Records for 2015-03-05
2015-03-04 March 2015 2015-03-06

Data Records for Thursday, 05 March 2015

Time	Temp	Chill	HIndex	Humid	Dewpt	 Wind 	HiWind	WindDir	Rain 	Barom
-----	----	-----	------	-----	-----	------	------	-------	-----	-----
00:00	18.1	18.1	18.1	53	3.9	0	2	292	0.00	30.287 
00:05	18.1	18.1	18.1	53	3.9	0	1	292	0.00	30.287 
00:10	18.1	18.1	18.1	53	3.9	0	2	315	0.00	30.287 
00:15	18.1	18.1	18.1	53	3.9	0	3	292	0.00	30.301 
00:20	18.0	18.0	18.0	53	3.8	0	3	315	0.00	30.301 
00:25	18.0	18.0	18.0	53	3.8	0	3	315	0.00	30.301 
00:30	18.0	18.0	18.0	52	3.4	1	3	315	0.00	30.305 
00:35	18.0	18.0	18.0	53	3.8	0	3	292	0.00	30.305 
00:40	18.0	18.0	18.0	53	3.8	0	3	315	0.00	30.305 
00:45	18.0	18.0	18.0	53	3.8	0	2	315	0.00	30.296 
00:50	17.8	17.8	17.8	53	3.6	0	2	315	0.00	30.296 
00:55	17.8	17.8	17.8	52	3.2	1	4	315	0.00	30.296 
01:00	17.8	17.8	17.8	52	3.2	0	2	315	0.00	30.310 
01:05	17.8	17.8	17.8	53	3.6	0	1	315	0.00	30.310 
01:10	17.8	17.8	17.8	53	3.6	0	3	338	0.00	30.310 
01:15	17.7	17.7	17.7	53	3.5	0	2	315	0.00	30.294 
01:20	17.7	17.7	17.7	52	3.1	0	3	315	0.00	30.294 
01:25	17.7	17.7	17.7	53	3.5	0	1	315	0.00	30.294 
01:30	17.5	17.5	17.5	53	3.3	0	2	315	0.00	30.282 
01:35	17.5	17.5	17.5	53	3.3	0	3	315	0.00	30.282 
01:40	17.5	17.5	17.5	53	3.3	0	3	270	0.00	30.282 
01:45	17.3	17.3	17.3	52	2.7	1	3	270	0.00	30.293 
01:50	17.3	17.3	17.3	54	3.5	0	1	292	0.00	30.293 
01:55	17.3	17.3	17.3	53	3.1	1	7	270	0.00	30.293 
02:00	17.3	17.3	17.3	53	3.1	0	2	270	0.00	30.308 
02:05	17.2	17.2	17.2	53	3.0	0	5	270	0.00	30.308 
02:10	17.2	17.2	17.2	52	2.6	1	5	45	0.00	30.308 
02:15	17.2	17.2	17.2	52	2.6	1	4	338	0.00	30.325 
02:20	17.0	17.0	17.0	53	2.9	0	2	315	0.00	30.325 
02:25	17.0	17.0	17.0	53	2.9	0	3	315	0.00	30.325 
02:30	17.0	17.0	17.0	53	2.9	0	2	315	0.00	30.314 
02:35	16.9	16.9	16.9	53	2.8	1	3	315	0.00	30.314 
02:40	16.9	16.9	16.9	53	2.8	0	2	315	0.00	30.314 
02:45	16.7	16.7	16.7	53	2.6	1	4	315	0.00	30.323 
02:50	16.7	16.7	16.7	53	2.6	1	9	0	0.00	30.323 
02:55	16.5	16.5	16.5	54	2.8	1	4	22	0.00	30.323 
03:00	16.4	16.4	16.4	54	2.7	1	3	68	0.00	30.308 
03:05	16.2	16.2	16.2	54	2.5	1	5	338	0.00	30.308 
03:10	16.1	16.1	16.1	54	2.4	1	3	338	0.00	30.308 
03:15	16.1	16.1	16.1	54	2.4	0	3	338	0.00	30.325 
03:20	15.9	15.9	15.9	54	2.2	0	2	338	0.00	30.325 
03:25	15.9	15.9	15.9	55	2.6	0	3	338	0.00	30.325 
03:30	15.6	15.6	15.6	54	2.0	1	6	338	0.00	30.316 
03:35	15.6	15.6	15.6	54	2.0	1	3	338	0.00	30.316 
03:40	15.4	15.4	15.4	54	1.8	0	2	338	0.00	30.316 
03:45	15.2	15.2	15.2	54	1.6	1	3	338	0.00	30.328 
03:50	15.2	15.2	15.2	54	1.6	0	2	338	0.00	30.328 
03:55	15.2	15.2	15.2	54	1.6	0	1	338	0.00	30.328 
04:00	15.1	15.1	15.1	54	1.5	0	2	338	0.00	30.328 
04:05	15.1	15.1	15.1	54	1.5	0	1	338	0.00	30.328 
04:10	15.1	15.1	15.1	54	1.5	0	1	338	0.00	30.328 
04:15	14.9	14.9	14.9	54	1.3	0	2	338	0.00	30.331 
04:20	14.9	14.9	14.9	54	1.3	0	4	338	0.00	30.331 
04:25	14.8	14.8	14.8	54	1.2	0	2	338	0.00	30.331 
04:30	14.8	14.8	14.8	53	0.8	0	2	338	0.00	30.330 
04:35	14.6	14.6	14.6	53	0.6	0	3	338	0.00	30.330 
04:40	14.6	14.6	14.6	53	0.6	0	2	338	0.00	30.330 
04:45	14.4	14.4	14.4	53	0.4	0	2	338	0.00	30.340 
04:50	14.4	14.4	14.4	53	0.4	0	1	338	0.00	30.340 
04:55	14.3	14.3	14.3	54	0.7	0	1	338	0.00	30.340 
05:00	14.3	14.3	14.3	54	0.7	0	1	338	0.00	30.334 
05:05	14.3	14.3	14.3	53	0.3	0	2	338	0.00	30.334 
05:10	14.1	14.1	14.1	53	0.2	0	1	338	0.00	30.334 
05:15	14.1	14.1	14.1	53	0.2	0	3	338	0.00	30.342 
05:20	14.0	14.0	14.0	53	0.1	0	1	338	0.00	30.342 
05:25	13.8	13.8	13.8	53	-0.1	0	0	---	0.00	30.342 
05:30	13.6	13.6	13.6	52	-0.7	0	1	338	0.00	30.355 
05:35	13.6	13.6	13.6	53	-0.3	0	1	338	0.00	30.355 
05:40	13.5	13.5	13.5	53	-0.4	0	1	338	0.00	30.355 
05:45	13.3	13.3	13.3	53	-0.6	0	1	338	0.00	30.358 
05:50	13.3	13.3	13.3	53	-0.6	0	1	338	0.00	30.358 
05:55	13.1	13.1	13.1	53	-0.8	0	1	338	0.00	30.358 
06:00	13.1	13.1	13.1	53	-0.8	0	1	338	0.00	30.362 
06:05	12.9	12.9	12.9	53	-1.0	0	0	---	0.00	30.362 
06:10	12.8	12.8	12.8	53	-1.1	0	1	338	0.00	30.362 
06:15	12.8	12.8	12.8	53	-1.1	0	1	338	0.00	30.353 
06:20	12.8	12.8	12.8	53	-1.1	0	1	338	0.00	30.353 
06:25	12.8	12.8	12.8	53	-1.1	0	1	338	0.00	30.353 
06:30	12.8	12.8	12.8	53	-1.1	0	1	338	0.00	30.368 
06:35	12.8	12.8	12.8	53	-1.1	0	1	338	0.00	30.368 
06:40	12.8	12.8	12.8	54	-0.7	0	1	338	0.00	30.368 
06:45	12.8	12.8	12.8	54	-0.7	0	1	338	0.00	30.392 
06:50	12.8	12.8	12.8	54	-0.7	0	1	338	0.00	30.392 
06:55	12.8	12.8	12.8	54	-0.7	0	1	338	0.00	30.392 
07:00	12.8	12.8	12.8	53	-1.1	0	1	338	0.00	30.397 
07:05	12.8	12.8	12.8	53	-1.1	0	0	---	0.00	30.397 
07:10	12.6	12.6	12.6	54	-0.9	0	0	---	0.00	30.397 
07:15	12.6	12.6	12.6	54	-0.9	0	2	338	0.00	30.377 
07:20	12.4	12.4	12.4	54	-1.0	0	0	---	0.00	30.377 
07:25	12.3	12.3	12.3	54	-1.1	0	0	---	0.00	30.377 
07:30	12.3	12.3	12.3	54	-1.1	0	0	---	0.00	30.389 
07:35	12.3	12.3	12.3	54	-1.1	0	1	338	0.00	30.389 
07:40	12.3	12.3	12.3	54	-1.1	0	1	338	0.00	30.389 
07:45	12.3	12.3	12.3	54	-1.1	0	0	---	0.00	30.402 
07:50	12.3	12.3	12.3	54	-1.1	0	1	338	0.00	30.402 
07:55	12.4	12.4	12.4	54	-1.0	0	1	338	0.00	30.402 
08:00	12.4	12.4	12.4	53	-1.4	0	2	338	0.00	30.398 
08:05	12.6	12.6	12.6	53	-1.2	0	2	338	0.00	30.398 
08:10	12.6	12.6	12.6	53	-1.2	0	2	338	0.00	30.398 
08:15	12.8	12.8	12.8	53	-1.1	0	2	338	0.00	30.387 
08:20	12.9	12.9	12.9	53	-1.0	0	2	338	0.00	30.387 
08:25	13.1	13.1	13.1	53	-0.8	0	2	338	0.00	30.387 
08:30	13.3	13.3	13.3	52	-1.0	0	2	338	0.00	30.390 
08:35	13.5	13.5	13.5	51	-1.2	0	2	338	0.00	30.390 
08:40	13.5	13.5	13.5	51	-1.2	0	2	338	0.00	30.390 
08:45	13.8	13.8	13.8	52	-0.5	0	2	338	0.00	30.405 
08:50	14.0	14.0	14.0	52	-0.3	0	2	338	0.00	30.405 
08:55	14.3	14.3	14.3	51	-0.5	0	1	338	0.00	30.405 
09:00	14.3	14.3	14.3	50	-0.9	1	3	112	0.00	30.421 
09:05	14.3	14.3	14.3	50	-0.9	0	1	112	0.00	30.421 
09:10	14.3	14.3	14.3	49	-1.3	0	2	112	0.00	30.421 
09:15	14.3	14.3	14.3	49	-1.3	0	1	112	0.00	30.433 
09:20	14.4	14.4	14.4	49	-1.2	0	2	112	0.00	30.433 
09:25	14.8	14.8	14.8	50	-0.4	0	3	112	0.00	30.433 
09:30	14.9	14.9	14.9	49	-0.8	0	3	112	0.00	30.449 
09:35	15.2	15.2	15.2	48	-0.9	0	2	112	0.00	30.449 
09:40	15.4	15.4	15.4	48	-0.7	0	2	112	0.00	30.449 
09:45	15.6	15.6	15.6	48	-0.6	0	3	112	0.00	30.442 
09:50	15.7	15.7	15.7	48	-0.5	0	2	112	0.00	30.442 
09:55	16.2	16.2	16.2	48	-0.0	0	1	112	0.00	30.442 
10:00	16.2	16.2	16.2	47	-0.4	0	2	112	0.00	30.431 
10:05	16.2	16.2	16.2	47	-0.4	0	1	338	0.00	30.431 
10:10	16.4	16.4	16.4	48	0.2	0	2	338	0.00	30.431 
10:15	16.9	16.9	16.9	48	0.6	0	3	338	0.00	30.426 
10:20	17.0	17.0	17.0	46	-0.2	1	3	338	0.00	30.426 
10:25	17.2	17.2	17.2	46	0.0	0	3	338	0.00	30.426 
10:30	17.2	17.2	17.2	47	0.5	0	1	338	0.00	30.423 
10:35	17.5	17.5	17.5	46	0.3	0	3	338	0.00	30.423 
10:40	17.8	17.8	17.8	45	0.1	0	2	338	0.00	30.423 
10:45	18.0	18.0	18.0	44	-0.2	0	1	338	0.00	30.432 
10:50	18.3	18.3	18.3	43	-0.4	0	1	338	0.00	30.432 
10:55	18.4	18.4	18.4	43	-0.3	0	2	338	0.00	30.432 
11:00	18.8	18.8	18.8	43	0.0	0	3	338	0.00	30.431 
11:05	18.8	18.8	18.8	42	-0.4	0	3	338	0.00	30.431 
11:10	18.8	18.8	18.8	43	0.0	0	3	338	0.00	30.431 
11:15	18.6	18.6	18.6	42	-0.6	0	2	338	0.00	30.433 
11:20	19.1	19.1	19.1	43	0.3	1	3	338	0.00	30.433 
11:25	19.2	19.2	19.2	43	0.4	1	4	68	0.00	30.433 
11:30	19.2	19.2	19.2	43	0.4	0	2	68	0.00	30.439 
11:35	19.4	19.4	19.4	42	0.1	1	2	68	0.00	30.439 
11:40	19.2	19.2	19.2	42	-0.1	1	3	68	0.00	30.439 
11:45	19.2	19.2	19.2	42	-0.1	1	3	0	0.00	30.431 
11:50	19.4	19.4	19.4	43	0.6	1	6	292	0.00	30.431 
11:55	19.4	19.4	19.4	42	0.1	1	4	338	0.00	30.431 
12:00	19.7	19.7	19.7	42	0.4	0	3	112	0.00	30.433 
12:05	20.3	20.3	20.3	42	0.9	1	4	112	0.00	30.433 
12:10	20.0	20.0	20.0	43	1.1	2	5	338	0.00	30.433 
12:15	20.3	20.3	20.3	42	0.9	1	3	292	0.00	30.440 
12:20	20.3	20.3	20.3	42	0.9	1	5	315	0.00	30.440 
12:25	20.0	20.0	20.0	42	0.6	1	3	315	0.00	30.440 
12:30	19.9	19.9	19.9	42	0.6	1	3	315	0.00	30.440 
12:35	19.4	19.4	19.4	42	0.1	2	6	292	0.00	30.440 
12:40	19.7	19.7	19.7	44	1.4	2	9	292	0.00	30.440 
12:45	20.2	20.2	20.2	43	1.3	1	3	292	0.00	30.440 
12:50	20.6	20.6	20.6	43	1.7	2	6	292	0.00	30.440 
12:55	20.5	20.5	20.5	43	1.6	1	4	292	0.00	30.440 
13:00	20.6	20.6	20.6	43	1.7	2	5	292	0.00	30.442 
13:05	20.5	20.5	20.5	42	1.1	3	5	270	0.00	30.442 
13:10	20.2	20.2	20.2	43	1.3	1	4	270	0.00	30.442 
13:15	20.2	20.2	20.2	44	1.8	1	3	270	0.00	30.443 
13:20	20.0	20.0	20.0	43	1.1	1	4	270	0.00	30.443 
13:25	19.9	19.9	19.9	44	1.5	0	4	270	0.00	30.443 
13:30	19.7	19.7	19.7	44	1.4	2	7	338	0.00	30.440 
13:35	19.4	19.4	19.4	45	1.6	1	3	292	0.00	30.440 
13:40	19.2	19.2	19.2	45	1.4	1	4	270	0.00	30.440 
13:45	19.1	19.1	19.1	44	0.8	2	5	338	0.00	30.443 
13:50	19.1	19.1	19.1	45	1.3	1	4	0	0.00	30.443 
13:55	19.5	19.5	19.5	45	1.7	1	3	315	0.00	30.443 
14:00	20.0	20.0	20.0	45	2.1	1	4	292	0.00	30.441 
14:05	20.3	20.3	20.3	45	2.4	1	3	292	0.00	30.441 
14:10	20.8	20.8	20.8	43	1.9	2	6	292	0.00	30.441 
14:15	20.5	20.5	20.5	43	1.6	2	6	248	0.00	30.445 
14:20	20.0	20.0	20.0	43	1.1	1	5	338	0.00	30.445 
14:25	19.7	19.7	19.7	45	1.8	2	7	315	0.00	30.445 
14:30	19.7	19.7	19.7	45	1.8	1	6	292	0.00	30.447 
14:35	19.7	19.7	19.7	46	2.3	1	5	292	0.00	30.447 
14:40	19.4	19.4	19.4	45	1.6	2	6	292	0.00	30.447 
14:45	19.2	19.2	19.2	45	1.4	1	5	292	0.00	30.450 
14:50	19.1	19.1	19.1	45	1.3	2	6	292	0.00	30.450 
14:55	18.8	18.8	18.8	46	1.5	2	5	292	0.00	30.450 
15:00	18.9	18.9	18.9	46	1.6	1	5	292	0.00	30.452 
15:05	19.1	19.1	19.1	46	1.8	1	4	292	0.00	30.452 
15:10	19.1	19.1	19.1	46	1.8	1	5	292	0.00	30.452 
15:15	19.4	19.4	19.4	45	1.6	1	4	315	0.00	30.452 
15:20	19.5	19.5	19.5	45	1.7	1	5	315	0.00	30.452 
15:25	20.2	20.2	20.2	45	2.3	1	3	248	0.00	30.452 
15:30	20.5	20.5	20.5	46	3.0	0	3	248	0.00	30.452 
15:35	20.2	20.2	20.2	46	2.8	1	4	315	0.00	30.452 
15:40	20.0	20.0	20.0	46	2.6	1	4	292	0.00	30.452 
15:45	19.7	19.7	19.7	47	2.8	1	3	292	0.00	30.455 
15:50	19.9	19.9	19.9	47	3.0	1	3	270	0.00	30.455 
15:55	20.0	20.0	20.0	46	2.6	1	3	270	0.00	30.455 
16:00	19.9	19.9	19.9	46	2.5	1	6	338	0.00	30.462 
16:05	20.0	20.0	20.0	47	3.0	1	3	338	0.00	30.462 
16:10	20.3	20.3	20.3	45	2.4	1	3	270	0.00	30.462 
16:15	20.2	20.2	20.2	46	2.8	1	5	270	0.00	30.473 
16:20	19.7	19.7	19.7	47	2.8	1	3	338	0.00	30.473 
16:25	19.4	19.4	19.4	47	2.5	1	4	338	0.00	30.473 
16:30	19.4	19.4	19.4	48	3.0	1	3	338	0.00	30.480 
16:35	19.2	19.2	19.2	49	3.2	1	5	270	0.00	30.480 
16:40	19.2	19.2	19.2	49	3.2	0	2	270	0.00	30.480 
16:45	19.4	19.4	19.4	49	3.4	0	2	270	0.00	30.481 
16:50	19.4	19.4	19.4	48	3.0	0	4	270	0.00	30.481 
16:55	19.4	19.4	19.4	48	3.0	1	4	338	0.00	30.481 
17:00	19.2	19.2	19.2	49	3.2	0	3	338	0.00	30.489 
17:05	19.4	19.4	19.4	49	3.4	0	3	338	0.00	30.489 
17:10	19.2	19.2	19.2	49	3.2	0	3	338	0.00	30.489 
17:15	19.2	19.2	19.2	50	3.6	0	2	315	0.00	30.494 
17:20	19.4	19.4	19.4	50	3.8	0	2	315	0.00	30.494 
17:25	19.2	19.2	19.2	49	3.2	0	2	315	0.00	30.494 
17:30	19.1	19.1	19.1	49	3.1	0	1	315	0.00	30.496 
17:35	18.9	18.9	18.9	50	3.4	0	2	315	0.00	30.496 
17:40	18.9	18.9	18.9	50	3.4	0	1	315	0.00	30.496 
17:45	18.8	18.8	18.8	50	3.3	0	1	315	0.00	30.498 
17:50	18.6	18.6	18.6	50	3.1	0	1	315	0.00	30.498 
17:55	18.4	18.4	18.4	50	2.9	0	1	315	0.00	30.498 
18:00	18.4	18.4	18.4	51	3.3	0	1	315	0.00	30.503 
18:05	18.3	18.3	18.3	51	3.2	0	1	315	0.00	30.503 
18:10	18.1	18.1	18.1	52	3.5	0	1	315	0.00	30.503 
18:15	18.1	18.1	18.1	52	3.5	0	0	---	0.00	30.509 
18:20	18.0	18.0	18.0	52	3.4	0	0	---	0.00	30.509 
18:25	17.8	17.8	17.8	53	3.6	0	0	---	0.00	30.509 
18:30	17.8	17.8	17.8	53	3.6	0	1	315	0.00	30.513 
18:35	17.7	17.7	17.7	54	3.9	0	1	315	0.00	30.513 
18:40	17.7	17.7	17.7	55	4.3	0	0	---	0.00	30.513 
18:45	17.5	17.5	17.5	55	4.1	0	0	---	0.00	30.514 
18:50	17.3	17.3	17.3	57	4.7	0	1	315	0.00	30.514 
18:55	17.3	17.3	17.3	59	5.5	0	1	315	0.00	30.514 
19:00	17.2	17.2	17.2	60	5.7	0	1	315	0.00	30.521 
19:05	17.2	17.2	17.2	61	6.1	0	0	---	0.00	30.521 
19:10	17.0	17.0	17.0	62	6.3	0	0	---	0.00	30.521 
19:15	16.9	16.9	16.9	62	6.2	0	0	---	0.00	30.529 
19:20	16.7	16.7	16.7	63	6.3	0	0	---	0.00	30.529 
19:25	16.7	16.7	16.7	63	6.3	0	1	315	0.00	30.529 
19:30	16.5	16.5	16.5	64	6.5	0	0	---	0.00	30.535 
19:35	16.4	16.4	16.4	65	6.7	0	0	---	0.00	30.535 
19:40	16.2	16.2	16.2	65	6.5	0	0	---	0.00	30.535 
19:45	16.1	16.1	16.1	65	6.4	0	1	315	0.00	30.545 
19:50	16.1	16.1	16.1	65	6.4	0	2	315	0.00	30.545 
19:55	16.1	16.1	16.1	65	6.4	0	1	315	0.00	30.545 
20:00	15.9	15.9	15.9	64	5.9	0	0	---	0.00	30.548 
20:05	15.7	15.7	15.7	64	5.7	0	0	---	0.00	30.548 
20:10	15.6	15.6	15.6	64	5.6	0	0	---	0.00	30.548 
20:15	15.2	15.2	15.2	64	5.2	0	0	---	0.00	30.548 
20:20	15.1	15.1	15.1	65	5.5	0	0	---	0.00	30.548 
20:25	14.8	14.8	14.8	65	5.2	0	0	---	0.00	30.548 
20:30	14.6	14.6	14.6	65	5.0	0	0	---	0.00	30.549 
20:35	14.4	14.4	14.4	65	4.8	0	0	---	0.00	30.549 
20:40	14.3	14.3	14.3	65	4.7	0	0	---	0.00	30.549 
20:45	14.1	14.1	14.1	66	4.9	0	0	---	0.00	30.552 
20:50	14.1	14.1	14.1	66	4.9	0	0	---	0.00	30.552 
20:55	14.0	14.0	14.0	65	4.4	0	0	---	0.00	30.552 
21:00	14.0	14.0	14.0	65	4.4	0	0	---	0.00	30.556 
21:05	13.8	13.8	13.8	65	4.2	0	1	315	0.00	30.556 
21:10	13.8	13.8	13.8	65	4.2	0	0	---	0.00	30.556 
21:15	13.6	13.6	13.6	65	4.1	0	0	---	0.00	30.559 
21:20	13.5	13.5	13.5	65	4.0	0	0	---	0.00	30.559 
21:25	13.3	13.3	13.3	65	3.8	0	0	---	0.00	30.559 
21:30	13.1	13.1	13.1	65	3.6	0	0	---	0.00	30.564 
21:35	12.9	12.9	12.9	65	3.4	0	0	---	0.00	30.564 
21:40	12.9	12.9	12.9	65	3.4	0	0	---	0.00	30.564 
21:45	12.8	12.8	12.8	65	3.3	0	0	---	0.00	30.572 
21:50	12.4	12.4	12.4	66	3.2	0	0	---	0.00	30.572 
21:55	12.3	12.3	12.3	66	3.1	0	0	---	0.00	30.572 
22:00	11.9	11.9	11.9	66	2.8	0	0	---	0.00	30.573 
22:05	11.9	11.9	11.9	67	3.1	0	0	---	0.00	30.573 
22:10	11.9	11.9	11.9	67	3.1	0	0	---	0.00	30.573 
22:15	11.9	11.9	11.9	67	3.1	0	0	---	0.00	30.576 
22:20	11.9	11.9	11.9	67	3.1	0	0	---	0.00	30.576 
22:25	11.9	11.9	11.9	67	3.1	0	1	315	0.00	30.576 
22:30	11.9	11.9	11.9	67	3.1	0	0	---	0.00	30.577 
22:35	11.9	11.9	11.9	67	3.1	0	1	315	0.00	30.577 
22:40	11.7	11.7	11.7	67	2.9	0	0	---	0.00	30.577 
22:45	11.6	11.6	11.6	67	2.8	0	0	---	0.00	30.577 
22:50	11.4	11.4	11.4	67	2.6	0	0	---	0.00	30.577 
22:55	11.2	11.2	11.2	67	2.4	0	0	---	0.00	30.577 
23:00	11.1	11.1	11.1	67	2.3	0	0	---	0.00	30.574 
23:05	10.7	10.7	10.7	68	2.3	0	0	---	0.00	30.574 
23:10	10.5	10.5	10.5	68	2.1	0	0	---	0.00	30.574 
23:15	10.4	10.4	10.4	68	2.0	0	0	---	0.00	30.573 
23:20	10.0	10.0	10.0	69	1.9	0	0	---	0.00	30.573 
23:25	9.9	9.9	9.9	69	1.8	0	0	---	0.00	30.573 
23:30	9.5	9.5	9.5	69	1.4	0	0	---	0.00	30.567 
23:35	9.3	9.3	9.3	69	1.2	0	0	---	0.00	30.567 
23:40	9.0	9.0	9.0	70	1.2	0	0	---	0.00	30.567 
23:45	8.6	8.6	8.6	70	0.9	0	0	---	0.00	30.565 
23:50	8.3	8.3	8.3	70	0.6	0	0	---	0.00	30.565 
23:55	8.1	8.1	8.1	71	0.7	0	0	---	0.00	30.565 

CoCoRaHS
IN-AL-39
A2 Web Hosting
Creative Commons License
GoDaddy
search engine by freefind advanced

loaded 2018-11-13 22:11:09 • last modified 2010-11-18 10:43:29
Privacy PolicyDisclaimer
• wx.awcolley.com is powered by PmWiki v.2002016 •
• all content (unless otherwise noted) © 2018 A W Colley